createdAt,value
2023-05-14T00:04:09.355Z,7.00
2023-05-14T00:09:12.556Z,7.03
2023-05-14T00:14:15.370Z,7.65
2023-05-14T00:19:18.339Z,9.38
2023-05-14T00:24:21.480Z,7.00
2023-05-14T00:29:24.387Z,7.03
2023-05-14T00:34:27.337Z,5.65
2023-05-14T00:39:30.119Z,7.07
2023-05-14T00:44:32.996Z,7.43
2023-05-14T00:49:36.170Z,11.00
2023-05-14T00:54:39.208Z,10.63
2023-05-14T00:59:43.038Z,8.10
2023-05-14T01:04:46.036Z,7.00
2023-05-14T01:10:03.281Z,10.68
2023-05-14T01:15:12.073Z,8.05
2023-05-14T01:20:15.083Z,7.03
2023-05-14T01:25:17.950Z,11.25
2023-05-14T01:30:27.458Z,12.43
2023-05-14T01:35:31.356Z,9.45
2023-05-14T01:40:35.100Z,6.70
2023-05-14T01:45:38.370Z,8.20
2023-05-14T01:50:41.401Z,5.95
2023-05-14T01:55:44.378Z,7.10
2023-05-14T02:00:47.542Z,5.20
2023-05-14T02:05:50.401Z,5.78
2023-05-14T02:10:53.129Z,7.38
2023-05-14T02:15:56.301Z,7.85
2023-05-14T02:20:59.409Z,5.60
2023-05-14T02:26:02.608Z,6.10
2023-05-14T02:31:05.799Z,8.85
2023-05-14T02:36:09.015Z,9.85
2023-05-14T02:41:11.917Z,7.15
2023-05-14T02:46:14.883Z,6.57
2023-05-14T02:51:17.761Z,9.10
2023-05-14T02:56:21.542Z,9.63
2023-05-14T03:01:24.528Z,8.93
2023-05-14T03:06:28.045Z,14.15
2023-05-14T03:11:30.929Z,10.68
2023-05-14T03:16:34.081Z,9.88
2023-05-14T03:21:37.111Z,10.25
2023-05-14T03:26:40.061Z,7.28
2023-05-14T03:31:44.114Z,8.88
2023-05-14T03:36:47.011Z,17.80
2023-05-14T03:41:50.356Z,15.32
2023-05-14T03:46:53.324Z,11.85
2023-05-14T03:51:57.785Z,7.13
2023-05-14T03:57:00.960Z,15.00
2023-05-14T04:02:03.751Z,21.15
2023-05-14T04:07:06.832Z,20.83
2023-05-14T04:12:10.277Z,37.42
2023-05-14T04:17:13.721Z,17.35
2023-05-14T04:22:16.725Z,6.93
2023-05-14T04:27:21.621Z,6.45
2023-05-14T04:32:24.964Z,8.90
2023-05-14T04:37:27.693Z,9.23
2023-05-14T04:42:30.976Z,5.80
2023-05-14T04:47:34.322Z,9.05
2023-05-14T04:52:37.219Z,5.43
2023-05-14T04:57:40.053Z,5.53
2023-05-14T05:02:43.087Z,9.20
2023-05-14T05:07:45.894Z,10.80
2023-05-14T05:12:49.010Z,10.57
2023-05-14T05:17:52.233Z,8.02
2023-05-14T05:22:55.270Z,10.20
2023-05-14T05:27:58.306Z,5.93
2023-05-14T05:33:01.558Z,9.77
2023-05-14T05:38:04.736Z,5.75
2023-05-14T05:43:07.645Z,6.72
2023-05-14T05:48:10.589Z,6.65
2023-05-14T05:53:13.312Z,9.88
2023-05-14T05:58:17.587Z,8.65
2023-05-14T06:03:20.795Z,8.95
2023-05-14T06:08:23.664Z,6.03
2023-05-14T06:13:26.529Z,8.73
2023-05-14T06:18:29.555Z,7.18
2023-05-14T06:23:32.692Z,7.55
2023-05-14T06:28:36.085Z,8.48
2023-05-14T06:33:38.816Z,6.47
2023-05-14T06:38:41.502Z,5.32
2023-05-14T06:43:44.401Z,6.65
2023-05-14T06:48:47.296Z,4.65
2023-05-14T06:53:50.493Z,4.97
2023-05-14T06:58:53.718Z,5.40
2023-05-14T07:03:56.713Z,3.78
2023-05-14T07:08:59.911Z,3.83
2023-05-14T07:14:02.940Z,4.25
2023-05-14T07:19:06.137Z,4.88
2023-05-14T07:24:09.417Z,4.22
2023-05-14T07:29:12.667Z,4.07
2023-05-14T07:34:15.603Z,5.72
2023-05-14T07:39:50.642Z,4.95
2023-05-14T07:44:53.687Z,3.70
2023-05-14T07:49:57.350Z,5.68
2023-05-14T07:55:01.696Z,4.50
2023-05-14T08:00:10.255Z,5.85
2023-05-14T08:05:17.142Z,4.07
2023-05-14T08:10:20.322Z,3.65
2023-05-14T08:15:25.175Z,6.40
2023-05-14T08:20:32.979Z,6.78
2023-05-14T08:25:36.225Z,5.53
2023-05-14T08:30:44.010Z,4.78
2023-05-14T08:35:46.816Z,4.72
2023-05-14T08:40:55.000Z,6.55
2023-05-14T08:46:02.431Z,4.25
2023-05-14T08:51:05.483Z,4.40
2023-05-14T08:56:09.345Z,5.80
2023-05-14T09:01:12.287Z,5.15
2023-05-14T09:06:16.321Z,4.05
2023-05-14T09:11:19.514Z,5.18
2023-05-14T09:16:22.717Z,4.68
2023-05-14T09:21:25.850Z,4.55
2023-05-14T09:26:32.143Z,8.50
2023-05-14T09:31:35.598Z,4.05
2023-05-14T09:36:38.920Z,5.22
2023-05-14T09:41:42.001Z,4.38
2023-05-14T09:46:45.822Z,5.07
2023-05-14T09:51:49.483Z,4.90
2023-05-14T09:56:53.365Z,5.80
2023-05-14T10:01:58.387Z,5.43
2023-05-14T10:07:04.242Z,5.97
2023-05-14T10:12:07.976Z,6.93
2023-05-14T10:17:18.597Z,4.45
2023-05-14T10:22:23.382Z,4.35
2023-05-14T10:27:26.957Z,6.30
2023-05-14T10:32:33.408Z,3.83
2023-05-14T10:37:36.445Z,5.03
2023-05-14T10:42:46.677Z,5.07
2023-05-14T10:47:49.601Z,6.35
2023-05-14T10:52:52.795Z,6.25
2023-05-14T10:57:59.375Z,6.43
2023-05-14T11:03:04.279Z,6.53
2023-05-14T11:08:08.691Z,6.30
2023-05-14T11:13:12.263Z,4.63
2023-05-14T11:18:26.609Z,4.38
2023-05-14T11:23:29.796Z,5.05
2023-05-14T11:28:33.276Z,5.00
2023-05-14T11:33:36.441Z,6.32
2023-05-14T11:43:43.022Z,5.03
2023-05-14T11:48:46.362Z,4.07
2023-05-14T11:53:49.373Z,3.13
2023-05-14T11:59:01.122Z,4.93
2023-05-14T12:04:05.032Z,6.63
2023-05-14T12:09:08.051Z,4.35
2023-05-14T12:14:22.691Z,2.88
2023-05-14T12:19:31.256Z,4.78
2023-05-14T12:24:34.176Z,4.88
2023-05-14T12:29:39.206Z,8.05
2023-05-14T12:34:42.211Z,4.88
2023-05-14T12:39:45.393Z,3.75
2023-05-14T12:49:56.073Z,6.43
2023-05-14T12:54:59.093Z,5.22
2023-05-14T13:00:02.406Z,6.35
2023-05-14T13:05:07.666Z,7.40
2023-05-14T13:10:11.720Z,4.93
2023-05-14T13:15:15.104Z,5.47
2023-05-14T13:20:18.690Z,4.60
2023-05-14T13:25:21.742Z,5.90
2023-05-14T13:30:25.204Z,4.70
2023-05-14T13:40:30.969Z,6.57
2023-05-14T13:45:34.424Z,5.40
2023-05-14T13:50:37.165Z,4.60
2023-05-14T13:55:39.983Z,9.25
2023-05-14T14:00:43.491Z,8.02
2023-05-14T14:05:46.619Z,8.98
2023-05-14T14:10:51.337Z,9.85
2023-05-14T14:20:56.955Z,6.15
2023-05-14T14:25:59.977Z,4.93
2023-05-14T14:31:03.502Z,6.63
2023-05-14T14:41:10.284Z,6.35
2023-05-14T14:46:14.154Z,9.13
2023-05-14T14:51:17.211Z,6.60
2023-05-14T14:56:20.081Z,10.63
2023-05-14T15:01:23.545Z,9.95
2023-05-14T15:06:27.108Z,13.30
2023-05-14T15:11:29.722Z,13.55
2023-05-14T15:16:32.810Z,12.07
2023-05-14T15:21:35.925Z,10.75
2023-05-14T15:26:38.786Z,11.45
2023-05-14T15:31:41.785Z,13.10
2023-05-14T15:36:44.761Z,20.40
2023-05-14T15:41:47.745Z,19.13
2023-05-14T15:46:51.342Z,17.60
2023-05-14T15:51:54.993Z,17.02
2023-05-14T15:56:57.776Z,29.15
2023-05-14T16:02:00.744Z,24.20
2023-05-14T16:07:05.455Z,20.02
2023-05-14T16:12:09.493Z,18.48
2023-05-14T16:17:12.677Z,26.27
2023-05-14T16:22:15.643Z,21.38
2023-05-14T16:27:21.388Z,22.23
2023-05-14T16:32:25.514Z,26.30
2023-05-14T16:37:28.637Z,27.25
2023-05-14T16:42:32.087Z,31.55
2023-05-14T16:47:35.286Z,25.20
2023-05-14T16:52:38.247Z,25.63
2023-05-14T16:57:41.244Z,27.25
2023-05-14T17:02:44.295Z,26.58
2023-05-14T17:07:47.454Z,28.25
2023-05-14T17:12:50.573Z,26.98
2023-05-14T17:17:53.585Z,14.70
2023-05-14T17:22:56.741Z,20.95
2023-05-14T17:28:00.530Z,18.30
2023-05-14T17:33:03.614Z,21.80
2023-05-14T17:38:07.669Z,15.20
2023-05-14T17:43:10.683Z,15.57
2023-05-14T17:48:13.667Z,18.67
2023-05-14T17:53:16.888Z,16.42
2023-05-14T17:58:20.776Z,13.35
2023-05-14T18:08:26.477Z,19.83
2023-05-14T18:13:29.428Z,15.32
2023-05-14T18:18:32.548Z,18.15
2023-05-14T18:23:35.274Z,17.42
2023-05-14T18:28:38.268Z,20.10
2023-05-14T18:33:41.361Z,15.27
2023-05-14T18:38:44.376Z,16.23
2023-05-14T18:43:47.270Z,13.18
2023-05-14T18:48:50.831Z,18.67
2023-05-14T18:53:53.639Z,11.98
2023-05-14T18:58:56.875Z,37.55
2023-05-14T19:03:59.669Z,29.60
2023-05-14T19:09:02.442Z,31.67
2023-05-14T19:14:05.299Z,24.70
2023-05-14T19:19:08.561Z,17.60
2023-05-14T19:24:11.957Z,21.75
2023-05-14T19:29:14.682Z,20.25
2023-05-14T19:34:17.875Z,19.08
2023-05-14T19:39:21.173Z,14.75
2023-05-14T19:44:24.343Z,16.80
2023-05-14T19:49:27.384Z,13.40
2023-05-14T19:54:30.199Z,15.63
2023-05-14T19:59:33.309Z,14.38
2023-05-14T20:04:40.242Z,17.90
2023-05-14T20:09:43.336Z,25.17
2023-05-14T20:14:46.466Z,26.42
2023-05-14T20:19:49.397Z,23.77
2023-05-14T20:24:52.918Z,28.25
2023-05-14T20:29:55.824Z,25.17
2023-05-14T20:35:02.565Z,24.60
2023-05-14T20:40:09.738Z,21.90
2023-05-14T20:45:12.503Z,30.58
2023-05-14T20:50:15.460Z,29.73
2023-05-14T20:55:19.350Z,31.75
2023-05-14T21:00:22.919Z,34.38
2023-05-14T21:05:26.249Z,26.08
2023-05-14T21:10:29.255Z,31.40
2023-05-14T21:15:32.910Z,33.42
2023-05-14T21:20:35.877Z,33.65
2023-05-14T21:25:38.667Z,32.95
2023-05-14T21:30:41.566Z,29.40
2023-05-14T21:35:48.264Z,26.88
2023-05-14T21:40:51.813Z,16.85
2023-05-14T21:45:54.839Z,22.40
2023-05-14T21:50:58.221Z,25.42
2023-05-14T21:56:01.250Z,23.20
2023-05-14T22:01:11.770Z,23.13
2023-05-14T22:06:14.880Z,19.90
2023-05-14T22:11:17.633Z,17.17
2023-05-14T22:16:22.685Z,18.85
2023-05-14T22:21:25.854Z,18.70
2023-05-14T22:26:28.905Z,21.42
2023-05-14T22:31:31.893Z,19.73
2023-05-14T22:36:35.008Z,19.38
2023-05-14T22:41:37.887Z,12.38
2023-05-14T22:46:41.450Z,13.13
2023-05-14T22:51:44.325Z,11.85
2023-05-14T22:56:47.567Z,9.82
2023-05-14T23:01:50.531Z,11.68
2023-05-14T23:06:53.626Z,8.68
2023-05-14T23:11:56.504Z,11.55
2023-05-14T23:16:59.528Z,8.75
2023-05-14T23:22:02.271Z,10.80
2023-05-14T23:27:05.740Z,7.43
2023-05-14T23:32:09.033Z,8.00
2023-05-14T23:37:12.156Z,10.05
2023-05-14T23:42:15.352Z,8.90
2023-05-14T23:47:18.076Z,10.77
2023-05-14T23:52:20.983Z,13.98
2023-05-14T23:57:23.825Z,7.97
